sensor_id;sensor_type;location;lat;lon;timestamp;P1;durP1;ratioP1;P2;durP2;ratioP2
49548;SDS011;35450;44.518;7.466;2024-01-15T00:01:48;24.33;;;13.18;;
49548;SDS011;35450;44.518;7.466;2024-01-15T00:04:51;23.70;;;13.38;;
49548;SDS011;35450;44.518;7.466;2024-01-15T00:07:55;25.38;;;12.82;;
49548;SDS011;35450;44.518;7.466;2024-01-15T00:11:00;20.45;;;11.90;;
49548;SDS011;35450;44.518;7.466;2024-01-15T00:14:04;23.05;;;13.52;;
49548;SDS011;35450;44.518;7.466;2024-01-15T00:17:08;26.05;;;17.58;;
49548;SDS011;35450;44.518;7.466;2024-01-15T00:20:12;31.92;;;19.98;;
49548;SDS011;35450;44.518;7.466;2024-01-15T00:23:16;20.63;;;12.45;;
49548;SDS011;35450;44.518;7.466;2024-01-15T00:26:20;22.73;;;13.40;;
49548;SDS011;35450;44.518;7.466;2024-01-15T00:29:24;21.13;;;12.57;;
49548;SDS011;35450;44.518;7.466;2024-01-15T00:32:27;23.35;;;14.45;;
49548;SDS011;35450;44.518;7.466;2024-01-15T00:35:31;24.23;;;13.52;;
49548;SDS011;35450;44.518;7.466;2024-01-15T00:38:35;23.00;;;13.73;;
49548;SDS011;35450;44.518;7.466;2024-01-15T00:41:39;24.30;;;14.05;;
49548;SDS011;35450;44.518;7.466;2024-01-15T00:44:43;25.95;;;15.00;;
49548;SDS011;35450;44.518;7.466;2024-01-15T00:47:48;25.65;;;14.23;;
49548;SDS011;35450;44.518;7.466;2024-01-15T00:50:52;26.73;;;13.90;;
49548;SDS011;35450;44.518;7.466;2024-01-15T00:53:57;30.38;;;14.88;;
49548;SDS011;35450;44.518;7.466;2024-01-15T00:57:02;25.38;;;13.52;;
49548;SDS011;35450;44.518;7.466;2024-01-15T01:00:06;29.65;;;15.75;;
49548;SDS011;35450;44.518;7.466;2024-01-15T01:03:12;25.35;;;15.15;;
49548;SDS011;35450;44.518;7.466;2024-01-15T01:06:16;30.52;;;15.13;;
49548;SDS011;35450;44.518;7.466;2024-01-15T01:09:20;27.33;;;15.10;;
49548;SDS011;35450;44.518;7.466;2024-01-15T01:12:24;25.92;;;13.90;;
49548;SDS011;35450;44.518;7.466;2024-01-15T01:15:28;23.05;;;13.63;;
49548;SDS011;35450;44.518;7.466;2024-01-15T01:18:32;24.92;;;13.70;;
49548;SDS011;35450;44.518;7.466;2024-01-15T01:21:36;26.33;;;15.45;;
49548;SDS011;35450;44.518;7.466;2024-01-15T01:24:40;28.10;;;16.52;;
49548;SDS011;35450;44.518;7.466;2024-01-15T01:27:44;26.20;;;14.98;;
49548;SDS011;35450;44.518;7.466;2024-01-15T01:30:48;35.58;;;19.40;;
49548;SDS011;35450;44.518;7.466;2024-01-15T01:33:52;29.70;;;16.02;;
49548;SDS011;35450;44.518;7.466;2024-01-15T01:36:56;27.25;;;16.42;;
49548;SDS011;35450;44.518;7.466;2024-01-15T01:40:00;34.97;;;18.25;;
49548;SDS011;35450;44.518;7.466;2024-01-15T01:43:05;35.03;;;17.05;;
49548;SDS011;35450;44.518;7.466;2024-01-15T01:46:09;25.83;;;15.38;;
49548;SDS011;35450;44.518;7.466;2024-01-15T01:49:13;25.50;;;14.73;;
49548;SDS011;35450;44.518;7.466;2024-01-15T01:52:17;30.52;;;16.67;;
49548;SDS011;35450;44.518;7.466;2024-01-15T01:55:21;30.08;;;18.35;;
49548;SDS011;35450;44.518;7.466;2024-01-15T01:58:29;29.30;;;17.40;;
49548;SDS011;35450;44.518;7.466;2024-01-15T02:01:35;35.90;;;18.83;;
49548;SDS011;35450;44.518;7.466;2024-01-15T02:04:39;34.95;;;19.70;;
49548;SDS011;35450;44.518;7.466;2024-01-15T02:07:43;35.25;;;19.50;;
49548;SDS011;35450;44.518;7.466;2024-01-15T02:10:48;33.35;;;19.30;;
49548;SDS011;35450;44.518;7.466;2024-01-15T02:13:52;31.05;;;18.77;;
49548;SDS011;35450;44.518;7.466;2024-01-15T02:16:57;33.45;;;19.48;;
49548;SDS011;35450;44.518;7.466;2024-01-15T02:20:01;31.45;;;19.20;;
49548;SDS011;35450;44.518;7.466;2024-01-15T02:23:07;29.60;;;18.50;;
49548;SDS011;35450;44.518;7.466;2024-01-15T02:26:12;38.40;;;20.70;;
49548;SDS011;35450;44.518;7.466;2024-01-15T02:29:17;33.50;;;20.48;;
49548;SDS011;35450;44.518;7.466;2024-01-15T02:32:21;34.55;;;19.42;;
49548;SDS011;35450;44.518;7.466;2024-01-15T02:35:26;36.25;;;21.40;;
49548;SDS011;35450;44.518;7.466;2024-01-15T02:38:29;36.28;;;19.98;;
49548;SDS011;35450;44.518;7.466;2024-01-15T02:41:33;36.55;;;20.38;;
49548;SDS011;35450;44.518;7.466;2024-01-15T02:44:37;32.60;;;19.33;;
49548;SDS011;35450;44.518;7.466;2024-01-15T02:47:41;31.75;;;18.08;;
49548;SDS011;35450;44.518;7.466;2024-01-15T02:50:45;33.30;;;20.20;;
49548;SDS011;35450;44.518;7.466;2024-01-15T02:53:49;38.88;;;22.08;;
49548;SDS011;35450;44.518;7.466;2024-01-15T02:56:53;33.40;;;19.65;;
49548;SDS011;35450;44.518;7.466;2024-01-15T02:59:57;35.33;;;21.00;;
49548;SDS011;35450;44.518;7.466;2024-01-15T03:03:02;34.38;;;20.23;;
49548;SDS011;35450;44.518;7.466;2024-01-15T03:06:06;41.70;;;22.85;;
49548;SDS011;35450;44.518;7.466;2024-01-15T03:09:09;38.10;;;20.98;;
49548;SDS011;35450;44.518;7.466;2024-01-15T03:12:14;36.13;;;20.52;;
49548;SDS011;35450;44.518;7.466;2024-01-15T03:15:18;36.25;;;20.88;;
49548;SDS011;35450;44.518;7.466;2024-01-15T03:18:22;40.58;;;21.77;;
49548;SDS011;35450;44.518;7.466;2024-01-15T03:21:26;39.47;;;22.35;;
49548;SDS011;35450;44.518;7.466;2024-01-15T03:24:31;32.50;;;20.45;;
49548;SDS011;35450;44.518;7.466;2024-01-15T03:27:35;37.33;;;21.63;;
49548;SDS011;35450;44.518;7.466;2024-01-15T03:30:39;38.58;;;19.60;;
49548;SDS011;35450;44.518;7.466;2024-01-15T03:33:43;35.60;;;21.23;;
49548;SDS011;35450;44.518;7.466;2024-01-15T03:36:47;35.35;;;21.15;;
49548;SDS011;35450;44.518;7.466;2024-01-15T03:39:51;41.58;;;21.58;;
49548;SDS011;35450;44.518;7.466;2024-01-15T03:42:55;35.38;;;20.55;;
49548;SDS011;35450;44.518;7.466;2024-01-15T03:45:59;37.90;;;22.33;;
49548;SDS011;35450;44.518;7.466;2024-01-15T03:49:03;36.80;;;21.10;;
49548;SDS011;35450;44.518;7.466;2024-01-15T03:52:07;38.35;;;21.27;;
49548;SDS011;35450;44.518;7.466;2024-01-15T03:55:11;38.15;;;21.67;;
49548;SDS011;35450;44.518;7.466;2024-01-15T03:58:15;34.20;;;18.73;;
49548;SDS011;35450;44.518;7.466;2024-01-15T04:01:19;33.20;;;19.55;;
49548;SDS011;35450;44.518;7.466;2024-01-15T04:04:23;44.95;;;24.40;;
49548;SDS011;35450;44.518;7.466;2024-01-15T04:07:27;32.58;;;18.83;;
49548;SDS011;35450;44.518;7.466;2024-01-15T04:10:31;30.77;;;19.13;;
49548;SDS011;35450;44.518;7.466;2024-01-15T04:13:35;33.15;;;19.48;;
49548;SDS011;35450;44.518;7.466;2024-01-15T04:16:39;30.50;;;17.80;;
49548;SDS011;35450;44.518;7.466;2024-01-15T04:19:44;29.42;;;16.38;;
49548;SDS011;35450;44.518;7.466;2024-01-15T04:22:48;29.38;;;15.90;;
49548;SDS011;35450;44.518;7.466;2024-01-15T04:25:52;32.17;;;17.00;;
49548;SDS011;35450;44.518;7.466;2024-01-15T04:28:56;31.77;;;17.83;;
49548;SDS011;35450;44.518;7.466;2024-01-15T04:32:02;27.90;;;15.13;;
49548;SDS011;35450;44.518;7.466;2024-01-15T04:35:05;29.13;;;16.95;;
49548;SDS011;35450;44.518;7.466;2024-01-15T04:38:10;32.50;;;17.00;;
49548;SDS011;35450;44.518;7.466;2024-01-15T04:41:14;34.38;;;18.00;;
49548;SDS011;35450;44.518;7.466;2024-01-15T04:44:20;35.90;;;19.23;;
49548;SDS011;35450;44.518;7.466;2024-01-15T04:47:24;33.42;;;18.40;;
49548;SDS011;35450;44.518;7.466;2024-01-15T04:50:28;34.90;;;18.85;;
49548;SDS011;35450;44.518;7.466;2024-01-15T04:53:32;32.08;;;16.70;;
49548;SDS011;35450;44.518;7.466;2024-01-15T04:56:38;29.58;;;16.77;;
49548;SDS011;35450;44.518;7.466;2024-01-15T04:59:42;34.13;;;17.48;;
49548;SDS011;35450;44.518;7.466;2024-01-15T05:02:46;33.83;;;16.42;;
49548;SDS011;35450;44.518;7.466;2024-01-15T05:05:50;34.60;;;17.08;;
49548;SDS011;35450;44.518;7.466;2024-01-15T05:08:54;28.42;;;15.48;;
49548;SDS011;35450;44.518;7.466;2024-01-15T05:11:58;27.15;;;15.40;;
49548;SDS011;35450;44.518;7.466;2024-01-15T05:15:02;25.83;;;15.05;;
49548;SDS011;35450;44.518;7.466;2024-01-15T05:18:07;29.77;;;15.73;;
49548;SDS011;35450;44.518;7.466;2024-01-15T05:21:11;31.58;;;16.42;;
49548;SDS011;35450;44.518;7.466;2024-01-15T05:24:15;30.20;;;16.23;;
49548;SDS011;35450;44.518;7.466;2024-01-15T05:27:19;34.45;;;15.80;;
49548;SDS011;35450;44.518;7.466;2024-01-15T05:30:23;28.25;;;16.42;;
49548;SDS011;35450;44.518;7.466;2024-01-15T05:33:27;28.60;;;15.20;;
49548;SDS011;35450;44.518;7.466;2024-01-15T05:36:31;28.13;;;15.88;;
49548;SDS011;35450;44.518;7.466;2024-01-15T05:39:35;29.95;;;16.35;;
49548;SDS011;35450;44.518;7.466;2024-01-15T05:42:40;29.73;;;16.52;;
49548;SDS011;35450;44.518;7.466;2024-01-15T05:45:45;29.92;;;16.95;;
49548;SDS011;35450;44.518;7.466;2024-01-15T05:48:49;31.05;;;17.73;;
49548;SDS011;35450;44.518;7.466;2024-01-15T05:51:53;43.50;;;23.13;;
49548;SDS011;35450;44.518;7.466;2024-01-15T05:54:57;34.63;;;20.13;;
49548;SDS011;35450;44.518;7.466;2024-01-15T05:58:01;34.28;;;17.92;;
49548;SDS011;35450;44.518;7.466;2024-01-15T06:01:05;33.63;;;18.80;;
49548;SDS011;35450;44.518;7.466;2024-01-15T06:04:09;34.67;;;21.02;;
49548;SDS011;35450;44.518;7.466;2024-01-15T06:07:13;38.30;;;21.70;;
49548;SDS011;35450;44.518;7.466;2024-01-15T06:10:17;33.53;;;20.20;;
49548;SDS011;35450;44.518;7.466;2024-01-15T06:13:22;32.85;;;18.48;;
49548;SDS011;35450;44.518;7.466;2024-01-15T06:16:26;33.03;;;18.98;;
49548;SDS011;35450;44.518;7.466;2024-01-15T06:19:30;30.27;;;17.95;;
49548;SDS011;35450;44.518;7.466;2024-01-15T06:22:34;35.22;;;20.05;;
49548;SDS011;35450;44.518;7.466;2024-01-15T06:25:39;31.13;;;18.92;;
49548;SDS011;35450;44.518;7.466;2024-01-15T06:28:44;31.23;;;18.40;;
49548;SDS011;35450;44.518;7.466;2024-01-15T06:31:47;34.38;;;19.02;;
49548;SDS011;35450;44.518;7.466;2024-01-15T06:34:51;32.20;;;17.95;;
49548;SDS011;35450;44.518;7.466;2024-01-15T06:37:56;37.40;;;19.60;;
49548;SDS011;35450;44.518;7.466;2024-01-15T06:41:00;38.83;;;21.55;;
49548;SDS011;35450;44.518;7.466;2024-01-15T06:44:04;39.45;;;21.13;;
49548;SDS011;35450;44.518;7.466;2024-01-15T06:47:08;39.65;;;20.50;;
49548;SDS011;35450;44.518;7.466;2024-01-15T06:50:12;33.63;;;21.13;;
49548;SDS011;35450;44.518;7.466;2024-01-15T06:53:16;30.08;;;18.40;;
49548;SDS011;35450;44.518;7.466;2024-01-15T06:56:20;35.78;;;20.83;;
49548;SDS011;35450;44.518;7.466;2024-01-15T06:59:24;56.95;;;29.15;;
49548;SDS011;35450;44.518;7.466;2024-01-15T07:02:28;53.15;;;27.23;;
49548;SDS011;35450;44.518;7.466;2024-01-15T07:05:32;53.72;;;26.95;;
49548;SDS011;35450;44.518;7.466;2024-01-15T07:08:36;44.28;;;22.83;;
49548;SDS011;35450;44.518;7.466;2024-01-15T07:11:44;41.35;;;21.98;;
49548;SDS011;35450;44.518;7.466;2024-01-15T07:14:49;48.85;;;26.52;;
49548;SDS011;35450;44.518;7.466;2024-01-15T07:17:53;51.25;;;27.58;;
49548;SDS011;35450;44.518;7.466;2024-01-15T07:20:57;62.35;;;34.83;;
49548;SDS011;35450;44.518;7.466;2024-01-15T07:24:02;76.47;;;39.67;;
49548;SDS011;35450;44.518;7.466;2024-01-15T07:27:06;45.30;;;27.60;;
49548;SDS011;35450;44.518;7.466;2024-01-15T07:30:13;43.10;;;27.67;;
49548;SDS011;35450;44.518;7.466;2024-01-15T07:33:17;63.22;;;39.42;;
49548;SDS011;35450;44.518;7.466;2024-01-15T07:36:21;53.03;;;28.92;;
49548;SDS011;35450;44.518;7.466;2024-01-15T07:39:26;71.47;;;39.42;;
49548;SDS011;35450;44.518;7.466;2024-01-15T07:42:32;61.92;;;33.22;;
49548;SDS011;35450;44.518;7.466;2024-01-15T07:45:36;48.25;;;25.30;;
49548;SDS011;35450;44.518;7.466;2024-01-15T07:48:40;52.65;;;27.25;;
49548;SDS011;35450;44.518;7.466;2024-01-15T07:51:44;61.45;;;30.58;;
49548;SDS011;35450;44.518;7.466;2024-01-15T07:54:48;48.83;;;28.15;;
49548;SDS011;35450;44.518;7.466;2024-01-15T07:57:52;40.88;;;23.88;;
49548;SDS011;35450;44.518;7.466;2024-01-15T08:01:02;48.55;;;24.95;;
49548;SDS011;35450;44.518;7.466;2024-01-15T08:04:06;45.58;;;23.13;;
49548;SDS011;35450;44.518;7.466;2024-01-15T08:07:12;52.42;;;25.40;;
49548;SDS011;35450;44.518;7.466;2024-01-15T08:10:17;53.35;;;26.60;;
49548;SDS011;35450;44.518;7.466;2024-01-15T08:13:21;42.72;;;22.77;;
49548;SDS011;35450;44.518;7.466;2024-01-15T08:16:25;40.15;;;21.35;;
49548;SDS011;35450;44.518;7.466;2024-01-15T08:19:29;40.38;;;21.33;;
49548;SDS011;35450;44.518;7.466;2024-01-15T08:22:33;39.63;;;20.77;;
49548;SDS011;35450;44.518;7.466;2024-01-15T08:25:37;37.08;;;20.42;;
49548;SDS011;35450;44.518;7.466;2024-01-15T08:28:41;30.52;;;17.00;;
49548;SDS011;35450;44.518;7.466;2024-01-15T08:31:45;32.75;;;16.33;;
49548;SDS011;35450;44.518;7.466;2024-01-15T08:34:50;29.02;;;15.50;;
49548;SDS011;35450;44.518;7.466;2024-01-15T08:37:55;26.52;;;14.10;;
49548;SDS011;35450;44.518;7.466;2024-01-15T08:41:01;32.60;;;15.63;;
49548;SDS011;35450;44.518;7.466;2024-01-15T08:44:05;35.20;;;14.60;;
49548;SDS011;35450;44.518;7.466;2024-01-15T08:47:09;27.90;;;14.18;;
49548;SDS011;35450;44.518;7.466;2024-01-15T08:50:14;26.77;;;13.90;;
49548;SDS011;35450;44.518;7.466;2024-01-15T08:53:18;23.10;;;14.15;;
49548;SDS011;35450;44.518;7.466;2024-01-15T08:56:22;32.65;;;14.73;;
49548;SDS011;35450;44.518;7.466;2024-01-15T08:59:26;28.42;;;14.73;;
49548;SDS011;35450;44.518;7.466;2024-01-15T09:02:30;29.52;;;14.48;;
49548;SDS011;35450;44.518;7.466;2024-01-15T09:05:34;28.85;;;13.07;;
49548;SDS011;35450;44.518;7.466;2024-01-15T09:08:39;27.33;;;14.57;;
49548;SDS011;35450;44.518;7.466;2024-01-15T09:11:44;31.95;;;17.48;;
49548;SDS011;35450;44.518;7.466;2024-01-15T09:14:49;29.17;;;16.63;;
49548;SDS011;35450;44.518;7.466;2024-01-15T09:17:53;31.88;;;16.75;;
49548;SDS011;35450;44.518;7.466;2024-01-15T09:20:57;29.10;;;16.77;;
49548;SDS011;35450;44.518;7.466;2024-01-15T09:24:02;33.08;;;16.88;;
49548;SDS011;35450;44.518;7.466;2024-01-15T09:27:07;55.88;;;25.30;;
49548;SDS011;35450;44.518;7.466;2024-01-15T09:30:11;31.05;;;17.80;;
49548;SDS011;35450;44.518;7.466;2024-01-15T09:33:15;32.60;;;16.15;;
49548;SDS011;35450;44.518;7.466;2024-01-15T09:36:19;25.83;;;15.30;;
49548;SDS011;35450;44.518;7.466;2024-01-15T09:39:23;34.53;;;16.30;;
49548;SDS011;35450;44.518;7.466;2024-01-15T09:42:27;30.33;;;17.65;;
49548;SDS011;35450;44.518;7.466;2024-01-15T09:45:31;29.08;;;17.05;;
49548;SDS011;35450;44.518;7.466;2024-01-15T09:48:35;29.98;;;17.40;;
49548;SDS011;35450;44.518;7.466;2024-01-15T09:51:42;34.17;;;18.33;;
49548;SDS011;35450;44.518;7.466;2024-01-15T09:54:46;31.45;;;19.27;;
49548;SDS011;35450;44.518;7.466;2024-01-15T09:57:51;27.20;;;16.35;;
49548;SDS011;35450;44.518;7.466;2024-01-15T10:00:58;35.03;;;19.58;;
49548;SDS011;35450;44.518;7.466;2024-01-15T10:04:04;34.50;;;20.33;;
49548;SDS011;35450;44.518;7.466;2024-01-15T10:07:08;36.33;;;20.55;;
49548;SDS011;35450;44.518;7.466;2024-01-15T10:10:13;38.40;;;20.10;;
49548;SDS011;35450;44.518;7.466;2024-01-15T10:13:17;34.05;;;19.95;;
49548;SDS011;35450;44.518;7.466;2024-01-15T10:16:21;47.28;;;23.85;;
49548;SDS011;35450;44.518;7.466;2024-01-15T10:19:26;34.28;;;20.98;;
49548;SDS011;35450;44.518;7.466;2024-01-15T10:22:31;32.42;;;19.80;;
49548;SDS011;35450;44.518;7.466;2024-01-15T10:25:35;39.95;;;21.55;;
49548;SDS011;35450;44.518;7.466;2024-01-15T10:28:40;36.30;;;19.23;;
49548;SDS011;35450;44.518;7.466;2024-01-15T10:31:46;35.38;;;19.35;;
49548;SDS011;35450;44.518;7.466;2024-01-15T10:34:51;37.03;;;20.13;;
49548;SDS011;35450;44.518;7.466;2024-01-15T10:37:56;32.10;;;18.77;;
49548;SDS011;35450;44.518;7.466;2024-01-15T10:41:00;39.90;;;21.20;;
49548;SDS011;35450;44.518;7.466;2024-01-15T10:44:04;32.92;;;19.95;;
49548;SDS011;35450;44.518;7.466;2024-01-15T10:47:08;39.90;;;21.88;;
49548;SDS011;35450;44.518;7.466;2024-01-15T10:50:13;40.63;;;21.13;;
49548;SDS011;35450;44.518;7.466;2024-01-15T10:53:17;31.90;;;19.98;;
49548;SDS011;35450;44.518;7.466;2024-01-15T10:56:21;41.83;;;21.15;;
49548;SDS011;35450;44.518;7.466;2024-01-15T10:59:26;39.75;;;20.42;;
49548;SDS011;35450;44.518;7.466;2024-01-15T11:02:30;36.03;;;21.45;;
49548;SDS011;35450;44.518;7.466;2024-01-15T11:05:41;36.15;;;20.17;;
49548;SDS011;35450;44.518;7.466;2024-01-15T11:08:50;35.00;;;20.98;;
49548;SDS011;35450;44.518;7.466;2024-01-15T11:12:09;39.00;;;22.05;;
49548;SDS011;35450;44.518;7.466;2024-01-15T11:15:17;38.40;;;22.25;;
49548;SDS011;35450;44.518;7.466;2024-01-15T11:18:25;34.63;;;19.90;;
49548;SDS011;35450;44.518;7.466;2024-01-15T11:21:46;32.78;;;20.13;;
49548;SDS011;35450;44.518;7.466;2024-01-15T11:24:50;43.00;;;21.63;;
49548;SDS011;35450;44.518;7.466;2024-01-15T11:27:54;38.00;;;23.17;;
49548;SDS011;35450;44.518;7.466;2024-01-15T11:30:59;41.60;;;23.02;;
49548;SDS011;35450;44.518;7.466;2024-01-15T11:34:03;34.63;;;22.42;;
49548;SDS011;35450;44.518;7.466;2024-01-15T11:37:07;36.70;;;21.98;;
49548;SDS011;35450;44.518;7.466;2024-01-15T11:40:11;39.30;;;23.13;;
49548;SDS011;35450;44.518;7.466;2024-01-15T11:43:16;45.08;;;22.83;;
49548;SDS011;35450;44.518;7.466;2024-01-15T11:46:25;40.03;;;23.42;;
49548;SDS011;35450;44.518;7.466;2024-01-15T11:53:03;35.53;;;21.48;;
49548;SDS011;35450;44.518;7.466;2024-01-15T11:56:17;38.50;;;22.77;;
49548;SDS011;35450;44.518;7.466;2024-01-15T11:59:25;37.78;;;21.55;;
49548;SDS011;35450;44.518;7.466;2024-01-15T12:02:29;40.90;;;24.02;;
49548;SDS011;35450;44.518;7.466;2024-01-15T12:05:33;42.35;;;25.00;;
49548;SDS011;35450;44.518;7.466;2024-01-15T12:08:40;34.33;;;21.83;;
49548;SDS011;35450;44.518;7.466;2024-01-15T12:11:45;40.88;;;23.88;;
49548;SDS011;35450;44.518;7.466;2024-01-15T12:14:54;39.83;;;23.35;;
49548;SDS011;35450;44.518;7.466;2024-01-15T12:17:59;40.35;;;23.77;;
49548;SDS011;35450;44.518;7.466;2024-01-15T12:21:09;38.08;;;22.05;;
49548;SDS011;35450;44.518;7.466;2024-01-15T12:24:13;37.90;;;22.75;;
49548;SDS011;35450;44.518;7.466;2024-01-15T12:27:17;40.00;;;22.27;;
49548;SDS011;35450;44.518;7.466;2024-01-15T12:30:21;37.22;;;22.60;;
49548;SDS011;35450;44.518;7.466;2024-01-15T12:33:27;46.08;;;23.73;;
49548;SDS011;35450;44.518;7.466;2024-01-15T12:36:31;46.95;;;23.10;;
49548;SDS011;35450;44.518;7.466;2024-01-15T12:39:35;40.88;;;25.10;;
49548;SDS011;35450;44.518;7.466;2024-01-15T12:42:39;34.35;;;22.52;;
49548;SDS011;35450;44.518;7.466;2024-01-15T12:45:43;39.15;;;23.83;;
49548;SDS011;35450;44.518;7.466;2024-01-15T12:48:47;41.28;;;23.60;;
49548;SDS011;35450;44.518;7.466;2024-01-15T12:51:52;36.65;;;22.92;;
49548;SDS011;35450;44.518;7.466;2024-01-15T12:54:57;40.92;;;24.83;;
49548;SDS011;35450;44.518;7.466;2024-01-15T12:58:01;45.42;;;24.45;;
49548;SDS011;35450;44.518;7.466;2024-01-15T13:01:05;40.25;;;24.25;;
49548;SDS011;35450;44.518;7.466;2024-01-15T13:04:09;45.55;;;25.60;;
49548;SDS011;35450;44.518;7.466;2024-01-15T13:07:14;40.38;;;25.10;;
49548;SDS011;35450;44.518;7.466;2024-01-15T13:10:18;41.75;;;25.48;;
49548;SDS011;35450;44.518;7.466;2024-01-15T13:13:22;44.88;;;26.05;;
49548;SDS011;35450;44.518;7.466;2024-01-15T13:16:26;42.50;;;25.02;;
49548;SDS011;35450;44.518;7.466;2024-01-15T13:19:32;44.05;;;25.08;;
49548;SDS011;35450;44.518;7.466;2024-01-15T13:22:37;49.45;;;25.33;;
49548;SDS011;35450;44.518;7.466;2024-01-15T13:25:43;46.42;;;29.10;;
49548;SDS011;35450;44.518;7.466;2024-01-15T13:28:47;44.88;;;27.15;;
49548;SDS011;35450;44.518;7.466;2024-01-15T13:31:51;43.83;;;25.95;;
49548;SDS011;35450;44.518;7.466;2024-01-15T13:34:59;50.63;;;26.92;;
49548;SDS011;35450;44.518;7.466;2024-01-15T13:38:03;39.50;;;24.92;;
49548;SDS011;35450;44.518;7.466;2024-01-15T13:41:08;41.53;;;25.42;;
49548;SDS011;35450;44.518;7.466;2024-01-15T13:44:12;38.42;;;24.65;;
49548;SDS011;35450;44.518;7.466;2024-01-15T13:47:16;40.50;;;24.27;;
49548;SDS011;35450;44.518;7.466;2024-01-15T13:50:20;46.65;;;25.83;;
49548;SDS011;35450;44.518;7.466;2024-01-15T13:53:24;41.80;;;23.98;;
49548;SDS011;35450;44.518;7.466;2024-01-15T13:56:28;48.42;;;25.90;;
49548;SDS011;35450;44.518;7.466;2024-01-15T13:59:35;44.35;;;26.40;;
49548;SDS011;35450;44.518;7.466;2024-01-15T14:02:40;52.03;;;26.77;;
49548;SDS011;35450;44.518;7.466;2024-01-15T14:05:44;46.58;;;26.33;;
49548;SDS011;35450;44.518;7.466;2024-01-15T14:08:48;42.10;;;24.77;;
49548;SDS011;35450;44.518;7.466;2024-01-15T14:11:51;40.50;;;25.00;;
49548;SDS011;35450;44.518;7.466;2024-01-15T14:14:56;51.50;;;27.15;;
49548;SDS011;35450;44.518;7.466;2024-01-15T14:18:00;45.83;;;26.20;;
49548;SDS011;35450;44.518;7.466;2024-01-15T14:21:04;39.28;;;25.60;;
49548;SDS011;35450;44.518;7.466;2024-01-15T14:24:08;49.33;;;26.75;;
49548;SDS011;35450;44.518;7.466;2024-01-15T14:27:12;46.70;;;25.40;;
49548;SDS011;35450;44.518;7.466;2024-01-15T14:30:16;44.08;;;26.73;;
49548;SDS011;35450;44.518;7.466;2024-01-15T14:33:21;47.10;;;27.10;;
49548;SDS011;35450;44.518;7.466;2024-01-15T14:36:25;48.30;;;27.35;;
49548;SDS011;35450;44.518;7.466;2024-01-15T14:39:30;43.30;;;28.63;;
49548;SDS011;35450;44.518;7.466;2024-01-15T14:42:37;45.17;;;27.65;;
49548;SDS011;35450;44.518;7.466;2024-01-15T14:45:41;53.00;;;29.55;;
49548;SDS011;35450;44.518;7.466;2024-01-15T14:48:45;44.33;;;26.98;;
49548;SDS011;35450;44.518;7.466;2024-01-15T14:51:49;38.28;;;25.60;;
49548;SDS011;35450;44.518;7.466;2024-01-15T14:54:54;44.05;;;25.60;;
49548;SDS011;35450;44.518;7.466;2024-01-15T14:57:58;48.70;;;26.00;;
49548;SDS011;35450;44.518;7.466;2024-01-15T15:01:03;43.78;;;26.95;;
49548;SDS011;35450;44.518;7.466;2024-01-15T15:04:07;42.50;;;26.80;;
49548;SDS011;35450;44.518;7.466;2024-01-15T15:07:11;49.05;;;26.30;;
49548;SDS011;35450;44.518;7.466;2024-01-15T15:10:16;42.70;;;26.05;;
49548;SDS011;35450;44.518;7.466;2024-01-15T15:13:21;42.53;;;26.58;;
49548;SDS011;35450;44.518;7.466;2024-01-15T15:16:26;44.25;;;27.27;;
49548;SDS011;35450;44.518;7.466;2024-01-15T15:19:31;41.72;;;26.92;;
49548;SDS011;35450;44.518;7.466;2024-01-15T15:22:36;40.55;;;26.00;;
49548;SDS011;35450;44.518;7.466;2024-01-15T15:25:40;49.90;;;27.48;;
49548;SDS011;35450;44.518;7.466;2024-01-15T15:28:46;41.15;;;26.15;;
49548;SDS011;35450;44.518;7.466;2024-01-15T15:31:50;48.50;;;27.33;;
49548;SDS011;35450;44.518;7.466;2024-01-15T15:34:55;47.05;;;28.85;;
49548;SDS011;35450;44.518;7.466;2024-01-15T15:37:59;46.97;;;28.35;;
49548;SDS011;35450;44.518;7.466;2024-01-15T15:41:03;53.40;;;28.15;;
49548;SDS011;35450;44.518;7.466;2024-01-15T15:44:07;55.53;;;29.08;;
49548;SDS011;35450;44.518;7.466;2024-01-15T15:47:13;67.55;;;34.40;;
49548;SDS011;35450;44.518;7.466;2024-01-15T15:50:20;56.40;;;32.83;;
49548;SDS011;35450;44.518;7.466;2024-01-15T15:53:24;54.42;;;35.47;;
49548;SDS011;35450;44.518;7.466;2024-01-15T15:56:29;52.75;;;32.10;;
49548;SDS011;35450;44.518;7.466;2024-01-15T15:59:36;54.33;;;33.05;;
49548;SDS011;35450;44.518;7.466;2024-01-15T16:02:40;60.53;;;37.50;;
49548;SDS011;35450;44.518;7.466;2024-01-15T16:05:44;66.07;;;36.60;;
49548;SDS011;35450;44.518;7.466;2024-01-15T16:08:48;54.20;;;31.15;;
49548;SDS011;35450;44.518;7.466;2024-01-15T16:11:52;55.53;;;32.80;;
49548;SDS011;35450;44.518;7.466;2024-01-15T16:14:57;59.65;;;34.63;;
49548;SDS011;35450;44.518;7.466;2024-01-15T16:18:03;57.17;;;33.80;;
49548;SDS011;35450;44.518;7.466;2024-01-15T16:21:08;58.83;;;35.55;;
49548;SDS011;35450;44.518;7.466;2024-01-15T16:24:12;58.92;;;33.35;;
49548;SDS011;35450;44.518;7.466;2024-01-15T16:27:16;67.60;;;37.03;;
49548;SDS011;35450;44.518;7.466;2024-01-15T16:30:20;59.67;;;35.22;;
49548;SDS011;35450;44.518;7.466;2024-01-15T16:33:24;50.55;;;29.52;;
49548;SDS011;35450;44.518;7.466;2024-01-15T16:36:28;47.47;;;30.02;;
49548;SDS011;35450;44.518;7.466;2024-01-15T16:39:32;60.33;;;31.88;;
49548;SDS011;35450;44.518;7.466;2024-01-15T16:42:36;49.38;;;30.05;;
49548;SDS011;35450;44.518;7.466;2024-01-15T16:45:40;55.92;;;32.63;;
49548;SDS011;35450;44.518;7.466;2024-01-15T16:48:44;60.95;;;34.03;;
49548;SDS011;35450;44.518;7.466;2024-01-15T16:51:48;61.60;;;35.58;;
49548;SDS011;35450;44.518;7.466;2024-01-15T16:54:53;66.55;;;35.92;;
49548;SDS011;35450;44.518;7.466;2024-01-15T16:57:57;58.40;;;34.33;;
49548;SDS011;35450;44.518;7.466;2024-01-15T17:01:01;77.78;;;40.65;;
49548;SDS011;35450;44.518;7.466;2024-01-15T17:04:05;65.18;;;36.92;;
49548;SDS011;35450;44.518;7.466;2024-01-15T17:07:09;58.20;;;31.85;;
49548;SDS011;35450;44.518;7.466;2024-01-15T17:10:13;60.90;;;34.25;;
49548;SDS011;35450;44.518;7.466;2024-01-15T17:13:18;59.88;;;31.70;;
49548;SDS011;35450;44.518;7.466;2024-01-15T17:16:23;49.63;;;28.55;;
49548;SDS011;35450;44.518;7.466;2024-01-15T17:19:27;48.97;;;28.85;;
49548;SDS011;35450;44.518;7.466;2024-01-15T17:22:31;64.55;;;33.28;;
49548;SDS011;35450;44.518;7.466;2024-01-15T17:25:35;70.40;;;36.78;;
49548;SDS011;35450;44.518;7.466;2024-01-15T17:28:40;68.43;;;36.30;;
49548;SDS011;35450;44.518;7.466;2024-01-15T17:31:44;54.88;;;31.27;;
49548;SDS011;35450;44.518;7.466;2024-01-15T17:34:52;62.95;;;31.45;;
49548;SDS011;35450;44.518;7.466;2024-01-15T17:37:56;49.83;;;29.13;;
49548;SDS011;35450;44.518;7.466;2024-01-15T17:41:00;50.17;;;25.23;;
49548;SDS011;35450;44.518;7.466;2024-01-15T17:44:05;27.13;;;17.33;;
49548;SDS011;35450;44.518;7.466;2024-01-15T17:47:09;29.50;;;16.33;;
49548;SDS011;35450;44.518;7.466;2024-01-15T17:50:13;27.98;;;16.23;;
49548;SDS011;35450;44.518;7.466;2024-01-15T17:53:17;31.45;;;17.77;;
49548;SDS011;35450;44.518;7.466;2024-01-15T17:56:28;54.55;;;31.45;;
49548;SDS011;35450;44.518;7.466;2024-01-15T17:59:32;46.30;;;25.80;;
49548;SDS011;35450;44.518;7.466;2024-01-15T18:02:37;37.15;;;20.13;;